sensor_id;sensor_type;location;lat;lon;timestamp;P1;durP1;ratioP1;P2;durP2;ratioP2
72924;SDS011;61070;50.794;7.054;2022-10-30T00:01:16;18.10;;;6.22;;
72924;SDS011;61070;50.794;7.054;2022-10-30T00:03:42;15.23;;;6.68;;
72924;SDS011;61070;50.794;7.054;2022-10-30T00:06:07;20.20;;;6.63;;
72924;SDS011;61070;50.794;7.054;2022-10-30T00:08:32;17.73;;;7.15;;
72924;SDS011;61070;50.794;7.054;2022-10-30T00:11:03;16.73;;;7.70;;
72924;SDS011;61070;50.794;7.054;2022-10-30T00:13:30;19.75;;;7.13;;
72924;SDS011;61070;50.794;7.054;2022-10-30T00:15:56;21.25;;;7.28;;
72924;SDS011;61070;50.794;7.054;2022-10-30T00:18:21;15.73;;;6.93;;
72924;SDS011;61070;50.794;7.054;2022-10-30T00:20:46;19.63;;;6.57;;
72924;SDS011;61070;50.794;7.054;2022-10-30T00:23:12;19.45;;;7.20;;
72924;SDS011;61070;50.794;7.054;2022-10-30T00:25:38;16.98;;;6.53;;
72924;SDS011;61070;50.794;7.054;2022-10-30T00:28:04;20.05;;;6.43;;
72924;SDS011;61070;50.794;7.054;2022-10-30T00:30:29;22.20;;;6.70;;
72924;SDS011;61070;50.794;7.054;2022-10-30T00:32:55;17.33;;;6.63;;
72924;SDS011;61070;50.794;7.054;2022-10-30T00:35:21;20.10;;;6.50;;
72924;SDS011;61070;50.794;7.054;2022-10-30T00:37:46;12.63;;;6.43;;
72924;SDS011;61070;50.794;7.054;2022-10-30T00:40:13;16.40;;;6.60;;
72924;SDS011;61070;50.794;7.054;2022-10-30T00:42:40;15.13;;;7.15;;
72924;SDS011;61070;50.794;7.054;2022-10-30T00:45:06;18.58;;;6.57;;
72924;SDS011;61070;50.794;7.054;2022-10-30T00:47:38;14.13;;;6.15;;
72924;SDS011;61070;50.794;7.054;2022-10-30T00:52:57;22.80;;;6.63;;
72924;SDS011;61070;50.794;7.054;2022-10-30T00:55:29;15.80;;;6.80;;
72924;SDS011;61070;50.794;7.054;2022-10-30T00:57:58;17.88;;;6.07;;
72924;SDS011;61070;50.794;7.054;2022-10-30T01:00:27;21.75;;;7.20;;
72924;SDS011;61070;50.794;7.054;2022-10-30T01:02:54;22.25;;;6.75;;
72924;SDS011;61070;50.794;7.054;2022-10-30T01:05:21;14.75;;;7.25;;
72924;SDS011;61070;50.794;7.054;2022-10-30T01:07:49;22.05;;;6.82;;
72924;SDS011;61070;50.794;7.054;2022-10-30T01:10:14;21.33;;;6.43;;
72924;SDS011;61070;50.794;7.054;2022-10-30T01:12:41;20.77;;;7.50;;
72924;SDS011;61070;50.794;7.054;2022-10-30T01:15:09;16.70;;;6.05;;
72924;SDS011;61070;50.794;7.054;2022-10-30T01:20:25;13.93;;;6.90;;
72924;SDS011;61070;50.794;7.054;2022-10-30T01:28:49;19.45;;;6.50;;
72924;SDS011;61070;50.794;7.054;2022-10-30T01:35:17;21.40;;;6.90;;
72924;SDS011;61070;50.794;7.054;2022-10-30T01:37:32;16.75;;;6.07;;
72924;SDS011;61070;50.794;7.054;2022-10-30T01:40:04;25.05;;;7.05;;
72924;SDS011;61070;50.794;7.054;2022-10-30T01:45:48;16.58;;;8.07;;
72924;SDS011;61070;50.794;7.054;2022-10-30T01:51:53;16.85;;;7.13;;
72924;SDS011;61070;50.794;7.054;2022-10-30T01:54:40;15.35;;;6.60;;
72924;SDS011;61070;50.794;7.054;2022-10-30T02:00:05;16.52;;;6.53;;
72924;SDS011;61070;50.794;7.054;2022-10-30T02:02:33;21.20;;;7.15;;
72924;SDS011;61070;50.794;7.054;2022-10-30T02:04:59;17.13;;;7.47;;
72924;SDS011;61070;50.794;7.054;2022-10-30T02:07:25;20.52;;;8.00;;
72924;SDS011;61070;50.794;7.054;2022-10-30T02:09:50;14.05;;;7.57;;
72924;SDS011;61070;50.794;7.054;2022-10-30T02:12:17;16.35;;;7.35;;
72924;SDS011;61070;50.794;7.054;2022-10-30T02:14:44;14.35;;;7.35;;
72924;SDS011;61070;50.794;7.054;2022-10-30T02:17:16;14.35;;;7.40;;
72924;SDS011;61070;50.794;7.054;2022-10-30T02:19:42;19.00;;;7.85;;
72924;SDS011;61070;50.794;7.054;2022-10-30T02:22:08;24.15;;;7.18;;
72924;SDS011;61070;50.794;7.054;2022-10-30T02:24:34;24.38;;;7.10;;
72924;SDS011;61070;50.794;7.054;2022-10-30T02:26:59;19.00;;;7.75;;
72924;SDS011;61070;50.794;7.054;2022-10-30T02:29:25;14.35;;;7.43;;
72924;SDS011;61070;50.794;7.054;2022-10-30T02:31:50;21.65;;;7.93;;
72924;SDS011;61070;50.794;7.054;2022-10-30T02:34:16;23.08;;;7.70;;
72924;SDS011;61070;50.794;7.054;2022-10-30T02:36:41;16.45;;;7.00;;
72924;SDS011;61070;50.794;7.054;2022-10-30T02:39:06;17.15;;;7.18;;
72924;SDS011;61070;50.794;7.054;2022-10-30T02:41:32;24.08;;;7.85;;
72924;SDS011;61070;50.794;7.054;2022-10-30T02:43:57;14.88;;;6.53;;
72924;SDS011;61070;50.794;7.054;2022-10-30T02:46:23;20.65;;;6.55;;
72924;SDS011;61070;50.794;7.054;2022-10-30T02:48:49;18.83;;;7.57;;
72924;SDS011;61070;50.794;7.054;2022-10-30T02:51:14;19.40;;;7.85;;
72924;SDS011;61070;50.794;7.054;2022-10-30T02:53:40;12.57;;;6.97;;
72924;SDS011;61070;50.794;7.054;2022-10-30T02:56:07;18.15;;;7.15;;
72924;SDS011;61070;50.794;7.054;2022-10-30T02:58:34;22.67;;;6.97;;
72924;SDS011;61070;50.794;7.054;2022-10-30T03:01:13;23.98;;;8.13;;
72924;SDS011;61070;50.794;7.054;2022-10-30T03:03:39;16.35;;;7.60;;
72924;SDS011;61070;50.794;7.054;2022-10-30T03:06:06;20.30;;;7.45;;
72924;SDS011;61070;50.794;7.054;2022-10-30T03:08:33;19.25;;;7.30;;
72924;SDS011;61070;50.794;7.054;2022-10-30T03:10:59;14.98;;;6.97;;
72924;SDS011;61070;50.794;7.054;2022-10-30T03:16:02;21.35;;;7.63;;
72924;SDS011;61070;50.794;7.054;2022-10-30T03:18:29;15.05;;;7.72;;
72924;SDS011;61070;50.794;7.054;2022-10-30T03:20:56;30.85;;;8.05;;
72924;SDS011;61070;50.794;7.054;2022-10-30T03:23:22;18.40;;;7.70;;
72924;SDS011;61070;50.794;7.054;2022-10-30T03:25:50;20.88;;;7.18;;
72924;SDS011;61070;50.794;7.054;2022-10-30T03:28:16;25.92;;;8.55;;
72924;SDS011;61070;50.794;7.054;2022-10-30T03:30:41;18.98;;;8.23;;
72924;SDS011;61070;50.794;7.054;2022-10-30T03:33:06;24.92;;;8.43;;
72924;SDS011;61070;50.794;7.054;2022-10-30T03:35:33;13.07;;;6.95;;
72924;SDS011;61070;50.794;7.054;2022-10-30T03:37:59;15.95;;;7.40;;
72924;SDS011;61070;50.794;7.054;2022-10-30T03:40:25;21.42;;;7.35;;
72924;SDS011;61070;50.794;7.054;2022-10-30T03:42:50;23.98;;;8.00;;
72924;SDS011;61070;50.794;7.054;2022-10-30T03:45:15;14.82;;;7.70;;
72924;SDS011;61070;50.794;7.054;2022-10-30T03:47:40;17.88;;;7.45;;
72924;SDS011;61070;50.794;7.054;2022-10-30T03:50:06;17.92;;;8.02;;
72924;SDS011;61070;50.794;7.054;2022-10-30T03:52:31;24.65;;;7.18;;
72924;SDS011;61070;50.794;7.054;2022-10-30T03:54:56;19.35;;;7.65;;
72924;SDS011;61070;50.794;7.054;2022-10-30T03:57:22;15.77;;;6.43;;
72924;SDS011;61070;50.794;7.054;2022-10-30T03:59:47;15.23;;;6.90;;
72924;SDS011;61070;50.794;7.054;2022-10-30T04:02:12;17.90;;;7.05;;
72924;SDS011;61070;50.794;7.054;2022-10-30T04:04:37;18.42;;;7.78;;
72924;SDS011;61070;50.794;7.054;2022-10-30T04:07:03;20.73;;;7.57;;
72924;SDS011;61070;50.794;7.054;2022-10-30T04:09:28;21.48;;;8.20;;
72924;SDS011;61070;50.794;7.054;2022-10-30T04:11:53;16.55;;;7.72;;
72924;SDS011;61070;50.794;7.054;2022-10-30T04:14:18;17.83;;;7.35;;
72924;SDS011;61070;50.794;7.054;2022-10-30T04:16:44;22.20;;;7.72;;
72924;SDS011;61070;50.794;7.054;2022-10-30T04:19:09;19.05;;;7.18;;
72924;SDS011;61070;50.794;7.054;2022-10-30T04:21:34;14.10;;;6.53;;
72924;SDS011;61070;50.794;7.054;2022-10-30T04:24:00;20.63;;;8.55;;
72924;SDS011;61070;50.794;7.054;2022-10-30T04:26:25;28.63;;;8.82;;
72924;SDS011;61070;50.794;7.054;2022-10-30T04:28:50;17.23;;;7.47;;
72924;SDS011;61070;50.794;7.054;2022-10-30T04:31:15;24.85;;;8.40;;
72924;SDS011;61070;50.794;7.054;2022-10-30T04:33:41;17.65;;;8.25;;
72924;SDS011;61070;50.794;7.054;2022-10-30T04:36:06;19.88;;;8.50;;
72924;SDS011;61070;50.794;7.054;2022-10-30T04:38:32;20.38;;;8.45;;
72924;SDS011;61070;50.794;7.054;2022-10-30T04:40:57;19.40;;;8.23;;
72924;SDS011;61070;50.794;7.054;2022-10-30T04:43:22;20.45;;;9.20;;
72924;SDS011;61070;50.794;7.054;2022-10-30T04:45:48;20.77;;;8.60;;
72924;SDS011;61070;50.794;7.054;2022-10-30T04:48:14;36.05;;;8.30;;
72924;SDS011;61070;50.794;7.054;2022-10-30T04:50:41;26.35;;;8.45;;
72924;SDS011;61070;50.794;7.054;2022-10-30T04:53:14;24.23;;;8.20;;
72924;SDS011;61070;50.794;7.054;2022-10-30T04:55:41;22.67;;;8.40;;
72924;SDS011;61070;50.794;7.054;2022-10-30T04:58:08;22.25;;;8.20;;
72924;SDS011;61070;50.794;7.054;2022-10-30T05:00:34;19.17;;;7.97;;
72924;SDS011;61070;50.794;7.054;2022-10-30T05:03:00;26.42;;;8.35;;
72924;SDS011;61070;50.794;7.054;2022-10-30T05:05:26;22.50;;;8.20;;
72924;SDS011;61070;50.794;7.054;2022-10-30T05:07:52;17.88;;;7.63;;
72924;SDS011;61070;50.794;7.054;2022-10-30T05:10:17;28.65;;;8.68;;
72924;SDS011;61070;50.794;7.054;2022-10-30T05:12:43;19.83;;;7.78;;
72924;SDS011;61070;50.794;7.054;2022-10-30T05:15:09;23.15;;;8.27;;
72924;SDS011;61070;50.794;7.054;2022-10-30T05:17:35;22.23;;;7.50;;
72924;SDS011;61070;50.794;7.054;2022-10-30T05:20:01;19.10;;;8.35;;
72924;SDS011;61070;50.794;7.054;2022-10-30T05:22:26;18.38;;;8.00;;
72924;SDS011;61070;50.794;7.054;2022-10-30T05:24:51;20.27;;;7.85;;
72924;SDS011;61070;50.794;7.054;2022-10-30T05:27:17;26.67;;;8.68;;
72924;SDS011;61070;50.794;7.054;2022-10-30T05:29:42;17.27;;;8.07;;
72924;SDS011;61070;50.794;7.054;2022-10-30T05:32:07;21.92;;;8.73;;
72924;SDS011;61070;50.794;7.054;2022-10-30T05:34:32;21.58;;;8.02;;
72924;SDS011;61070;50.794;7.054;2022-10-30T05:36:58;20.25;;;8.13;;
72924;SDS011;61070;50.794;7.054;2022-10-30T05:39:23;24.75;;;8.77;;
72924;SDS011;61070;50.794;7.054;2022-10-30T05:41:48;21.95;;;8.35;;
72924;SDS011;61070;50.794;7.054;2022-10-30T05:44:13;18.40;;;7.80;;
72924;SDS011;61070;50.794;7.054;2022-10-30T05:46:39;21.77;;;7.45;;
72924;SDS011;61070;50.794;7.054;2022-10-30T05:49:04;12.05;;;7.38;;
72924;SDS011;61070;50.794;7.054;2022-10-30T05:51:30;16.45;;;7.68;;
72924;SDS011;61070;50.794;7.054;2022-10-30T05:53:55;19.58;;;8.73;;
72924;SDS011;61070;50.794;7.054;2022-10-30T05:56:20;21.92;;;7.45;;
72924;SDS011;61070;50.794;7.054;2022-10-30T05:58:47;21.20;;;8.75;;
72924;SDS011;61070;50.794;7.054;2022-10-30T06:01:14;27.17;;;8.77;;
72924;SDS011;61070;50.794;7.054;2022-10-30T06:03:39;16.23;;;8.25;;
72924;SDS011;61070;50.794;7.054;2022-10-30T06:06:05;21.85;;;8.70;;
72924;SDS011;61070;50.794;7.054;2022-10-30T06:08:30;25.95;;;7.53;;
72924;SDS011;61070;50.794;7.054;2022-10-30T06:10:56;25.00;;;8.55;;
72924;SDS011;61070;50.794;7.054;2022-10-30T06:13:21;20.67;;;8.18;;
72924;SDS011;61070;50.794;7.054;2022-10-30T06:15:46;17.77;;;7.80;;
72924;SDS011;61070;50.794;7.054;2022-10-30T06:18:12;23.13;;;8.85;;
72924;SDS011;61070;50.794;7.054;2022-10-30T06:20:37;17.63;;;8.82;;
72924;SDS011;61070;50.794;7.054;2022-10-30T06:23:03;20.95;;;8.50;;
72924;SDS011;61070;50.794;7.054;2022-10-30T06:25:30;22.42;;;10.05;;
72924;SDS011;61070;50.794;7.054;2022-10-30T06:27:57;24.73;;;9.05;;
72924;SDS011;61070;50.794;7.054;2022-10-30T06:30:22;22.05;;;9.52;;
72924;SDS011;61070;50.794;7.054;2022-10-30T06:32:48;23.92;;;8.95;;
72924;SDS011;61070;50.794;7.054;2022-10-30T06:35:14;19.83;;;8.25;;
72924;SDS011;61070;50.794;7.054;2022-10-30T06:37:46;20.25;;;8.27;;
72924;SDS011;61070;50.794;7.054;2022-10-30T06:40:12;24.25;;;8.38;;
72924;SDS011;61070;50.794;7.054;2022-10-30T06:42:41;18.38;;;7.53;;
72924;SDS011;61070;50.794;7.054;2022-10-30T06:45:10;15.93;;;7.18;;
72924;SDS011;61070;50.794;7.054;2022-10-30T06:47:36;25.05;;;8.50;;
72924;SDS011;61070;50.794;7.054;2022-10-30T06:50:05;24.30;;;8.38;;
72924;SDS011;61070;50.794;7.054;2022-10-30T06:52:33;19.55;;;7.40;;
72924;SDS011;61070;50.794;7.054;2022-10-30T06:54:58;18.10;;;8.55;;
72924;SDS011;61070;50.794;7.054;2022-10-30T06:57:23;27.13;;;7.63;;
72924;SDS011;61070;50.794;7.054;2022-10-30T06:59:48;21.55;;;8.15;;
72924;SDS011;61070;50.794;7.054;2022-10-30T07:02:14;19.27;;;7.70;;
72924;SDS011;61070;50.794;7.054;2022-10-30T07:04:39;23.38;;;7.57;;
72924;SDS011;61070;50.794;7.054;2022-10-30T07:07:05;18.75;;;8.55;;
72924;SDS011;61070;50.794;7.054;2022-10-30T07:09:30;23.13;;;8.27;;
72924;SDS011;61070;50.794;7.054;2022-10-30T07:11:55;24.25;;;8.35;;
72924;SDS011;61070;50.794;7.054;2022-10-30T07:14:21;29.33;;;8.55;;
72924;SDS011;61070;50.794;7.054;2022-10-30T07:16:46;23.80;;;8.30;;
72924;SDS011;61070;50.794;7.054;2022-10-30T07:19:12;21.98;;;7.88;;
72924;SDS011;61070;50.794;7.054;2022-10-30T07:21:37;23.20;;;7.72;;
72924;SDS011;61070;50.794;7.054;2022-10-30T07:24:02;17.88;;;8.05;;
72924;SDS011;61070;50.794;7.054;2022-10-30T07:26:28;23.33;;;8.45;;
72924;SDS011;61070;50.794;7.054;2022-10-30T07:28:53;16.65;;;9.25;;
72924;SDS011;61070;50.794;7.054;2022-10-30T07:31:18;20.92;;;7.65;;
72924;SDS011;61070;50.794;7.054;2022-10-30T07:33:43;26.85;;;8.57;;
72924;SDS011;61070;50.794;7.054;2022-10-30T07:36:09;21.80;;;9.20;;
72924;SDS011;61070;50.794;7.054;2022-10-30T07:38:34;17.90;;;7.95;;
72924;SDS011;61070;50.794;7.054;2022-10-30T07:40:59;18.25;;;7.68;;
72924;SDS011;61070;50.794;7.054;2022-10-30T07:43:25;29.88;;;8.55;;
72924;SDS011;61070;50.794;7.054;2022-10-30T07:45:50;27.50;;;8.63;;
72924;SDS011;61070;50.794;7.054;2022-10-30T07:48:15;25.05;;;9.30;;
72924;SDS011;61070;50.794;7.054;2022-10-30T07:50:41;21.23;;;8.05;;
72924;SDS011;61070;50.794;7.054;2022-10-30T07:53:06;34.95;;;8.82;;
72924;SDS011;61070;50.794;7.054;2022-10-30T07:55:31;22.17;;;7.72;;
72924;SDS011;61070;50.794;7.054;2022-10-30T07:57:56;22.85;;;8.35;;
72924;SDS011;61070;50.794;7.054;2022-10-30T08:00:22;23.70;;;8.20;;
72924;SDS011;61070;50.794;7.054;2022-10-30T08:02:48;20.30;;;7.60;;
72924;SDS011;61070;50.794;7.054;2022-10-30T08:05:14;21.10;;;8.32;;
72924;SDS011;61070;50.794;7.054;2022-10-30T08:07:40;13.65;;;8.05;;
72924;SDS011;61070;50.794;7.054;2022-10-30T08:10:06;19.02;;;7.95;;
72924;SDS011;61070;50.794;7.054;2022-10-30T08:12:32;30.20;;;10.07;;
72924;SDS011;61070;50.794;7.054;2022-10-30T08:14:58;18.58;;;8.82;;
72924;SDS011;61070;50.794;7.054;2022-10-30T08:17:24;20.30;;;8.85;;
72924;SDS011;61070;50.794;7.054;2022-10-30T08:19:49;23.67;;;7.90;;
72924;SDS011;61070;50.794;7.054;2022-10-30T08:22:15;21.02;;;8.48;;
72924;SDS011;61070;50.794;7.054;2022-10-30T08:24:40;20.80;;;7.72;;
72924;SDS011;61070;50.794;7.054;2022-10-30T08:27:06;25.42;;;9.32;;
72924;SDS011;61070;50.794;7.054;2022-10-30T08:29:31;17.38;;;8.55;;
72924;SDS011;61070;50.794;7.054;2022-10-30T08:31:58;25.55;;;8.18;;
72924;SDS011;61070;50.794;7.054;2022-10-30T08:34:23;19.63;;;8.20;;
72924;SDS011;61070;50.794;7.054;2022-10-30T08:36:51;20.15;;;8.55;;
72924;SDS011;61070;50.794;7.054;2022-10-30T08:39:16;16.65;;;8.20;;
72924;SDS011;61070;50.794;7.054;2022-10-30T08:41:42;20.10;;;8.43;;
72924;SDS011;61070;50.794;7.054;2022-10-30T08:44:08;20.83;;;7.75;;
72924;SDS011;61070;50.794;7.054;2022-10-30T08:46:34;26.25;;;8.40;;
72924;SDS011;61070;50.794;7.054;2022-10-30T08:48:59;19.65;;;7.82;;
72924;SDS011;61070;50.794;7.054;2022-10-30T08:51:25;22.20;;;8.55;;
72924;SDS011;61070;50.794;7.054;2022-10-30T08:53:50;25.45;;;8.50;;
72924;SDS011;61070;50.794;7.054;2022-10-30T08:56:16;23.13;;;7.75;;
72924;SDS011;61070;50.794;7.054;2022-10-30T08:58:41;18.42;;;7.47;;
72924;SDS011;61070;50.794;7.054;2022-10-30T09:01:07;18.30;;;8.40;;
72924;SDS011;61070;50.794;7.054;2022-10-30T09:03:32;25.52;;;7.97;;
72924;SDS011;61070;50.794;7.054;2022-10-30T09:05:58;21.17;;;9.68;;
72924;SDS011;61070;50.794;7.054;2022-10-30T09:08:25;20.20;;;7.82;;
72924;SDS011;61070;50.794;7.054;2022-10-30T09:10:54;14.98;;;6.95;;
72924;SDS011;61070;50.794;7.054;2022-10-30T09:13:20;20.70;;;7.68;;
72924;SDS011;61070;50.794;7.054;2022-10-30T09:15:45;15.65;;;6.40;;
72924;SDS011;61070;50.794;7.054;2022-10-30T09:18:11;21.75;;;8.20;;
72924;SDS011;61070;50.794;7.054;2022-10-30T09:20:36;18.58;;;6.88;;
72924;SDS011;61070;50.794;7.054;2022-10-30T09:23:02;24.25;;;7.82;;
72924;SDS011;61070;50.794;7.054;2022-10-30T09:25:27;15.90;;;5.82;;
72924;SDS011;61070;50.794;7.054;2022-10-30T09:27:52;21.73;;;6.75;;
72924;SDS011;61070;50.794;7.054;2022-10-30T09:30:18;22.80;;;6.35;;
72924;SDS011;61070;50.794;7.054;2022-10-30T09:32:43;26.05;;;6.82;;
72924;SDS011;61070;50.794;7.054;2022-10-30T09:35:08;25.23;;;6.45;;
72924;SDS011;61070;50.794;7.054;2022-10-30T09:37:34;17.30;;;6.40;;
72924;SDS011;61070;50.794;7.054;2022-10-30T09:40:01;17.02;;;6.82;;
72924;SDS011;61070;50.794;7.054;2022-10-30T09:58:54;11.38;;;5.70;;
72924;SDS011;61070;50.794;7.054;2022-10-30T10:04:23;18.13;;;5.68;;
72924;SDS011;61070;50.794;7.054;2022-10-30T10:06:59;17.48;;;5.22;;
72924;SDS011;61070;50.794;7.054;2022-10-30T10:09:28;14.60;;;5.50;;
72924;SDS011;61070;50.794;7.054;2022-10-30T10:12:11;19.48;;;5.75;;
72924;SDS011;61070;50.794;7.054;2022-10-30T10:14:44;16.10;;;5.40;;
72924;SDS011;61070;50.794;7.054;2022-10-30T10:17:12;18.00;;;5.53;;
72924;SDS011;61070;50.794;7.054;2022-10-30T10:19:59;22.10;;;5.93;;
72924;SDS011;61070;50.794;7.054;2022-10-30T10:22:26;16.15;;;5.50;;
72924;SDS011;61070;50.794;7.054;2022-10-30T10:24:58;19.27;;;5.88;;
72924;SDS011;61070;50.794;7.054;2022-10-30T10:30:33;21.40;;;5.78;;
72924;SDS011;61070;50.794;7.054;2022-10-30T10:35:48;23.52;;;5.60;;
72924;SDS011;61070;50.794;7.054;2022-10-30T10:41:09;14.65;;;5.30;;
72924;SDS011;61070;50.794;7.054;2022-10-30T10:46:59;16.17;;;5.07;;
72924;SDS011;61070;50.794;7.054;2022-10-30T10:49:56;10.88;;;5.03;;
72924;SDS011;61070;50.794;7.054;2022-10-30T10:55:31;12.10;;;4.60;;
72924;SDS011;61070;50.794;7.054;2022-10-30T10:58:03;15.63;;;4.67;;
72924;SDS011;61070;50.794;7.054;2022-10-30T11:00:31;20.63;;;4.82;;
72924;SDS011;61070;50.794;7.054;2022-10-30T11:05:47;17.42;;;5.03;;
72924;SDS011;61070;50.794;7.054;2022-10-30T11:08:20;16.33;;;5.00;;
72924;SDS011;61070;50.794;7.054;2022-10-30T11:11:04;16.73;;;4.68;;
72924;SDS011;61070;50.794;7.054;2022-10-30T11:13:34;14.70;;;5.25;;
72924;SDS011;61070;50.794;7.054;2022-10-30T11:16:12;14.50;;;5.03;;
72924;SDS011;61070;50.794;7.054;2022-10-30T11:18:54;17.05;;;4.95;;
72924;SDS011;61070;50.794;7.054;2022-10-30T11:21:24;22.05;;;5.30;;
72924;SDS011;61070;50.794;7.054;2022-10-30T11:23:50;15.20;;;4.20;;
72924;SDS011;61070;50.794;7.054;2022-10-30T11:31:16;14.25;;;4.40;;
72924;SDS011;61070;50.794;7.054;2022-10-30T11:33:44;10.10;;;4.53;;
72924;SDS011;61070;50.794;7.054;2022-10-30T11:36:13;17.13;;;4.45;;
72924;SDS011;61070;50.794;7.054;2022-10-30T11:38:40;18.88;;;4.50;;
72924;SDS011;61070;50.794;7.054;2022-10-30T11:41:05;14.50;;;4.72;;
72924;SDS011;61070;50.794;7.054;2022-10-30T11:43:30;13.05;;;4.35;;
72924;SDS011;61070;50.794;7.054;2022-10-30T11:45:56;15.93;;;5.07;;
72924;SDS011;61070;50.794;7.054;2022-10-30T11:48:22;13.38;;;4.40;;
72924;SDS011;61070;50.794;7.054;2022-10-30T11:50:55;9.98;;;4.03;;
72924;SDS011;61070;50.794;7.054;2022-10-30T11:55:55;19.10;;;4.63;;
72924;SDS011;61070;50.794;7.054;2022-10-30T11:58:29;16.55;;;4.57;;
72924;SDS011;61070;50.794;7.054;2022-10-30T12:00:59;12.50;;;4.18;;
72924;SDS011;61070;50.794;7.054;2022-10-30T12:03:45;12.18;;;4.93;;
72924;SDS011;61070;50.794;7.054;2022-10-30T12:08:59;14.05;;;4.50;;
72924;SDS011;61070;50.794;7.054;2022-10-30T12:11:43;16.33;;;4.68;;
72924;SDS011;61070;50.794;7.054;2022-10-30T12:16:45;10.57;;;3.63;;
72924;SDS011;61070;50.794;7.054;2022-10-30T12:19:12;15.63;;;4.30;;
72924;SDS011;61070;50.794;7.054;2022-10-30T12:21:49;18.73;;;5.28;;
72924;SDS011;61070;50.794;7.054;2022-10-30T12:24:31;14.57;;;4.40;;
72924;SDS011;61070;50.794;7.054;2022-10-30T12:27:00;15.50;;;4.90;;
72924;SDS011;61070;50.794;7.054;2022-10-30T12:29:38;15.20;;;4.82;;
72924;SDS011;61070;50.794;7.054;2022-10-30T12:32:10;16.77;;;5.05;;
72924;SDS011;61070;50.794;7.054;2022-10-30T12:34:49;25.60;;;5.22;;
72924;SDS011;61070;50.794;7.054;2022-10-30T12:37:25;19.38;;;4.50;;
72924;SDS011;61070;50.794;7.054;2022-10-30T12:39:57;8.77;;;4.13;;
72924;SDS011;61070;50.794;7.054;2022-10-30T12:42:29;14.57;;;5.30;;
72924;SDS011;61070;50.794;7.054;2022-10-30T12:45:05;12.55;;;4.13;;
72924;SDS011;61070;50.794;7.054;2022-10-30T12:47:44;20.83;;;4.28;;
72924;SDS011;61070;50.794;7.054;2022-10-30T12:52:44;16.98;;;5.38;;
72924;SDS011;61070;50.794;7.054;2022-10-30T13:00:20;16.15;;;4.57;;
72924;SDS011;61070;50.794;7.054;2022-10-30T13:08:29;20.42;;;5.38;;
72924;SDS011;61070;50.794;7.054;2022-10-30T13:13:37;16.42;;;4.32;;
72924;SDS011;61070;50.794;7.054;2022-10-30T13:16:07;14.20;;;3.75;;
72924;SDS011;61070;50.794;7.054;2022-10-30T13:18:39;19.35;;;4.60;;
72924;SDS011;61070;50.794;7.054;2022-10-30T13:36:49;11.88;;;4.30;;
72924;SDS011;61070;50.794;7.054;2022-10-30T13:39:33;13.35;;;4.70;;
72924;SDS011;61070;50.794;7.054;2022-10-30T13:51:04;10.55;;;4.40;;
72924;SDS011;61070;50.794;7.054;2022-10-30T13:53:37;12.60;;;3.67;;
72924;SDS011;61070;50.794;7.054;2022-10-30T13:56:06;11.23;;;4.28;;
72924;SDS011;61070;50.794;7.054;2022-10-30T13:58:44;18.77;;;5.43;;
72924;SDS011;61070;50.794;7.054;2022-10-30T14:01:22;10.85;;;5.53;;
72924;SDS011;61070;50.794;7.054;2022-10-30T14:04:11;11.02;;;4.68;;
72924;SDS011;61070;50.794;7.054;2022-10-30T14:07:00;15.93;;;5.80;;
72924;SDS011;61070;50.794;7.054;2022-10-30T14:23:05;18.50;;;5.13;;
72924;SDS011;61070;50.794;7.054;2022-10-30T14:25:32;12.43;;;5.13;;
72924;SDS011;61070;50.794;7.054;2022-10-30T14:27:58;14.65;;;5.05;;
72924;SDS011;61070;50.794;7.054;2022-10-30T14:30:23;14.98;;;4.28;;
72924;SDS011;61070;50.794;7.054;2022-10-30T14:32:51;10.25;;;5.00;;
72924;SDS011;61070;50.794;7.054;2022-10-30T14:35:30;10.77;;;4.40;;
72924;SDS011;61070;50.794;7.054;2022-10-30T14:46:14;12.70;;;4.53;;
72924;SDS011;61070;50.794;7.054;2022-10-30T14:48:51;13.65;;;4.18;;
72924;SDS011;61070;50.794;7.054;2022-10-30T14:51:29;13.77;;;4.47;;
72924;SDS011;61070;50.794;7.054;2022-10-30T14:54:07;8.10;;;3.88;;
72924;SDS011;61070;50.794;7.054;2022-10-30T14:56:45;12.00;;;4.28;;
72924;SDS011;61070;50.794;7.054;2022-10-30T15:04:50;10.80;;;4.45;;
72924;SDS011;61070;50.794;7.054;2022-10-30T15:07:29;10.02;;;3.30;;
72924;SDS011;61070;50.794;7.054;2022-10-30T15:10:05;14.20;;;4.38;;
72924;SDS011;61070;50.794;7.054;2022-10-30T15:15:27;12.82;;;4.20;;
72924;SDS011;61070;50.794;7.054;2022-10-30T15:17:54;8.50;;;3.75;;
72924;SDS011;61070;50.794;7.054;2022-10-30T15:20:23;7.68;;;3.17;;
72924;SDS011;61070;50.794;7.054;2022-10-30T15:22:51;8.85;;;3.47;;
72924;SDS011;61070;50.794;7.054;2022-10-30T15:25:23;10.27;;;4.05;;
72924;SDS011;61070;50.794;7.054;2022-10-30T15:27:51;14.35;;;3.83;;
72924;SDS011;61070;50.794;7.054;2022-10-30T15:30:21;17.15;;;4.97;;
72924;SDS011;61070;50.794;7.054;2022-10-30T15:32:49;15.30;;;4.43;;
72924;SDS011;61070;50.794;7.054;2022-10-30T15:35:22;15.50;;;4.32;;
72924;SDS011;61070;50.794;7.054;2022-10-30T15:37:58;16.05;;;4.63;;
72924;SDS011;61070;50.794;7.054;2022-10-30T15:40:24;20.17;;;4.78;;
72924;SDS011;61070;50.794;7.054;2022-10-30T15:42:50;11.50;;;4.35;;
72924;SDS011;61070;50.794;7.054;2022-10-30T15:45:17;11.60;;;4.35;;
72924;SDS011;61070;50.794;7.054;2022-10-30T15:47:46;15.55;;;5.22;;
72924;SDS011;61070;50.794;7.054;2022-10-30T15:50:18;23.23;;;5.85;;
72924;SDS011;61070;50.794;7.054;2022-10-30T15:52:45;19.48;;;4.68;;
72924;SDS011;61070;50.794;7.054;2022-10-30T15:55:12;16.67;;;4.35;;
72924;SDS011;61070;50.794;7.054;2022-10-30T15:57:41;13.93;;;4.70;;
72924;SDS011;61070;50.794;7.054;2022-10-30T16:00:21;9.18;;;4.25;;
72924;SDS011;61070;50.794;7.054;2022-10-30T16:05:46;9.07;;;3.67;;
72924;SDS011;61070;50.794;7.054;2022-10-30T16:08:17;10.52;;;4.05;;
72924;SDS011;61070;50.794;7.054;2022-10-30T16:10:47;8.65;;;3.03;;
72924;SDS011;61070;50.794;7.054;2022-10-30T16:13:17;11.43;;;4.05;;
72924;SDS011;61070;50.794;7.054;2022-10-30T16:15:44;10.77;;;3.55;;
72924;SDS011;61070;50.794;7.054;2022-10-30T16:20:56;13.15;;;4.28;;
72924;SDS011;61070;50.794;7.054;2022-10-30T16:23:29;11.00;;;3.85;;
72924;SDS011;61070;50.794;7.054;2022-10-30T16:26:00;14.40;;;4.53;;
72924;SDS011;61070;50.794;7.054;2022-10-30T16:30:55;15.75;;;5.70;;
72924;SDS011;61070;50.794;7.054;2022-10-30T16:33:24;13.15;;;4.38;;
72924;SDS011;61070;50.794;7.054;2022-10-30T16:35:51;10.75;;;4.93;;
72924;SDS011;61070;50.794;7.054;2022-10-30T16:38:18;16.25;;;4.50;;
72924;SDS011;61070;50.794;7.054;2022-10-30T16:40:45;17.50;;;4.85;;
72924;SDS011;61070;50.794;7.054;2022-10-30T16:43:30;12.77;;;5.10;;
72924;SDS011;61070;50.794;7.054;2022-10-30T16:46:10;17.17;;;5.82;;
72924;SDS011;61070;50.794;7.054;2022-10-30T16:48:53;11.00;;;4.25;;
72924;SDS011;61070;50.794;7.054;2022-10-30T16:51:23;17.77;;;8.55;;
72924;SDS011;61070;50.794;7.054;2022-10-30T16:53:51;23.65;;;7.18;;
72924;SDS011;61070;50.794;7.054;2022-10-30T16:56:21;18.83;;;7.22;;
72924;SDS011;61070;50.794;7.054;2022-10-30T16:58:50;13.10;;;5.38;;
72924;SDS011;61070;50.794;7.054;2022-10-30T17:01:16;14.38;;;5.40;;
72924;SDS011;61070;50.794;7.054;2022-10-30T17:03:42;12.10;;;5.28;;
72924;SDS011;61070;50.794;7.054;2022-10-30T17:06:24;13.48;;;5.50;;
72924;SDS011;61070;50.794;7.054;2022-10-30T17:08:51;15.63;;;4.75;;
72924;SDS011;61070;50.794;7.054;2022-10-30T17:11:18;14.07;;;5.47;;
72924;SDS011;61070;50.794;7.054;2022-10-30T17:13:57;12.50;;;4.90;;
72924;SDS011;61070;50.794;7.054;2022-10-30T17:16:26;14.00;;;6.10;;
72924;SDS011;61070;50.794;7.054;2022-10-30T17:18:52;17.45;;;4.80;;